Time;durP1;ratioP1;P1;durP2;ratioP2;P2;SDS_P1;SDS_P2;PMS_P1;PMS_P2;Temp;Humidity;BMP_temperature;BMP_pressure;BME280_temperature;BME280_humidity;BME280_pressure;Samples;Min_cycle;Max_cycle;Signal;HPM_P1;HPM_P2
2022/06/02 00:02:18;;;;;;;2.70;2.45;;;15.20;99.90;;;;;;5244970;28;20346;-81
2022/06/02 00:05:01;;;;;;;3.88;2.47;;;15.20;99.90;;;;;;5241680;28;20502;-79
2022/06/02 00:07:53;;;;;;;2.03;1.92;;;15.10;99.90;;;;;;5257538;28;20028;-81
2022/06/02 00:10:55;;;;;;;2.63;2.05;;;15.00;99.90;;;;;;5240543;28;20037;-79
2022/06/02 00:13:37;;;;;;;2.42;2.03;;;14.90;99.90;;;;;;5241815;28;20042;-80
2022/06/02 00:16:17;;;;;;;4.95;2.42;;;14.90;99.90;;;;;;5223694;28;20016;-80
2022/06/02 00:18:55;;;;;;;2.50;2.15;;;14.80;99.90;;;;;;5259547;28;20043;-80
2022/06/02 00:21:41;;;;;;;2.90;2.28;;;14.80;99.90;;;;;;5261113;28;20024;-81
2022/06/02 00:24:12;;;;;;;2.10;1.90;;;14.80;99.90;;;;;;5268170;28;20031;-78
2022/06/02 00:27:07;;;;;;;3.13;2.42;;;14.70;99.90;;;;;;5264598;28;20021;-80
2022/06/02 00:29:41;;;;;;;2.90;2.47;;;14.60;99.90;;;;;;5240822;28;20027;-78
2022/06/02 00:32:25;;;;;;;2.83;2.42;;;14.60;99.90;;;;;;5257295;28;20024;-80
2022/06/02 00:35:24;;;;;;;2.88;2.58;;;14.50;99.90;;;;;;5254376;28;20046;-79
2022/06/02 00:38:21;;;;;;;2.60;2.40;;;14.50;99.90;;;;;;5252352;28;20031;-80
2022/06/02 00:40:54;;;;;;;3.53;2.60;;;14.50;99.90;;;;;;5232608;28;20422;-79
2022/06/02 00:43:28;;;;;;;2.58;2.38;;;14.50;99.90;;;;;;5230794;28;20036;-77
2022/06/02 00:46:09;;;;;;;2.60;2.08;;;14.40;99.90;;;;;;5231241;28;20043;-80
2022/06/02 00:49:14;;;;;;;2.85;2.58;;;14.40;99.90;;;;;;5237265;28;20046;-78
2022/06/02 00:52:08;;;;;;;4.05;2.53;;;14.40;99.90;;;;;;5233669;28;20032;-79
2022/06/02 00:58:05;;;;;;;3.75;2.35;;;14.30;99.90;;;;;;5237124;28;20031;-77
2022/06/02 01:00:43;;;;;;;6.10;2.70;;;14.30;99.90;;;;;;5226200;28;20354;-76
2022/06/02 01:03:25;;;;;;;2.47;2.28;;;14.30;99.90;;;;;;5251946;28;20497;-76
2022/06/02 01:06:23;;;;;;;2.80;2.60;;;14.30;99.90;;;;;;5241403;28;20048;-78
2022/06/02 01:09:15;;;;;;;3.63;2.35;;;14.30;99.90;;;;;;5242263;28;20055;-79
2022/06/02 01:12:04;;;;;;;2.85;2.42;;;14.20;99.90;;;;;;5253366;28;20028;-79
2022/06/02 01:14:54;;;;;;;2.78;2.30;;;14.10;99.90;;;;;;5212136;28;20510;-81
2022/06/02 01:18:03;;;;;;;2.75;2.50;;;14.10;99.90;;;;;;5212486;28;20281;-79
2022/06/02 01:20:40;;;;;;;2.45;2.25;;;14.10;99.90;;;;;;5231177;28;20754;-79
2022/06/02 01:23:38;;;;;;;2.92;2.33;;;14.10;99.90;;;;;;5214878;28;20021;-80
2022/06/02 01:26:52;;;;;;;3.00;2.70;;;14.00;99.90;;;;;;5250196;28;20045;-80
2022/06/02 01:29:55;;;;;;;3.72;2.78;;;14.00;99.90;;;;;;5214129;28;20027;-81
2022/06/02 01:32:47;;;;;;;3.00;2.67;;;13.90;99.90;;;;;;5211589;28;20037;-79
2022/06/02 01:35:53;;;;;;;3.38;3.03;;;13.90;99.90;;;;;;5252282;28;20028;-79
2022/06/02 01:38:50;;;;;;;3.83;2.40;;;13.90;99.90;;;;;;5253793;28;20050;-78
2022/06/02 01:41:29;;;;;;;2.95;2.67;;;14.00;99.90;;;;;;5269740;28;20032;-79
2022/06/02 01:44:12;;;;;;;3.60;2.85;;;14.10;99.90;;;;;;5232825;28;20020;-82
2022/06/02 01:47:01;;;;;;;2.90;2.55;;;14.10;99.90;;;;;;5223205;28;20033;-79
2022/06/02 01:49:53;;;;;;;2.97;2.45;;;14.00;99.90;;;;;;5228989;28;20031;-81
2022/06/02 01:52:33;;;;;;;2.42;2.17;;;14.00;99.90;;;;;;5216711;28;20021;-81
2022/06/02 01:55:22;;;;;;;4.47;3.20;;;13.90;99.90;;;;;;5252999;28;20038;-79
2022/06/02 01:58:04;;;;;;;3.58;2.65;;;13.90;99.90;;;;;;5246568;28;20742;-80
2022/06/02 02:00:46;;;;;;;3.00;2.70;;;13.90;99.90;;;;;;5236979;28;20028;-79
2022/06/02 02:03:32;;;;;;;3.00;2.70;;;13.70;99.90;;;;;;5235683;28;20036;-79
2022/06/02 02:06:33;;;;;;;2.97;2.65;;;13.70;99.90;;;;;;5233101;28;20048;-80
2022/06/02 02:09:38;;;;;;;3.25;2.55;;;13.60;99.90;;;;;;5238268;28;20028;-81
2022/06/02 02:12:31;;;;;;;2.75;2.55;;;13.60;99.90;;;;;;5249927;28;20450;-80
2022/06/02 02:15:26;;;;;;;2.47;2.28;;;13.50;99.90;;;;;;5227497;28;20590;-80
2022/06/02 02:18:08;;;;;;;;;;;13.40;99.90;;;;;;5204216;28;20036;-80
2022/06/02 02:20:39;;;;;;;2.65;2.45;;;13.40;99.90;;;;;;5222437;28;19905;-79
2022/06/02 02:23:30;;;;;;;2.90;2.63;;;13.30;99.90;;;;;;5263033;28;20020;-79
2022/06/02 02:26:42;;;;;;;3.00;2.80;;;13.40;99.90;;;;;;5250078;28;20063;-79
2022/06/02 02:29:36;;;;;;;3.05;2.63;;;13.40;99.90;;;;;;5231376;28;20486;-79
2022/06/02 02:32:21;;;;;;;3.10;2.80;;;13.40;99.90;;;;;;5238961;28;20016;-81
2022/06/02 02:35:07;;;;;;;;;;;13.40;99.90;;;;;;5257980;28;20028;-82
2022/06/02 02:37:52;;;;;;;3.80;2.58;;;13.40;99.90;;;;;;5270255;28;19906;-81
2022/06/02 02:40:35;;;;;;;2.88;2.47;;;13.40;99.90;;;;;;5239971;28;20028;-79
2022/06/02 02:43:14;;;;;;;3.20;2.90;;;13.40;99.90;;;;;;5249163;28;20464;-82
2022/06/02 02:46:06;;;;;;;3.42;2.97;;;13.30;99.90;;;;;;5231332;28;20038;-78
2022/06/02 02:48:52;;;;;;;3.08;2.67;;;13.30;99.90;;;;;;5248851;28;20320;-80
2022/06/02 02:52:01;;;;;;;2.75;2.55;;;13.30;99.90;;;;;;5229064;28;20017;-80
2022/06/02 02:54:43;;;;;;;3.08;2.83;;;13.20;99.90;;;;;;5203739;28;20026;-78
2022/06/02 02:57:14;;;;;;;4.13;3.25;;;13.20;99.90;;;;;;5199930;28;20029;-79
2022/06/02 02:59:51;;;;;;;3.30;2.85;;;13.30;99.90;;;;;;5205016;28;20465;-78
2022/06/02 03:02:23;;;;;;;4.20;2.78;;;13.30;99.90;;;;;;5188654;28;20022;-80
2022/06/02 03:05:23;;;;;;;3.72;3.15;;;13.30;99.90;;;;;;5176809;28;20045;-79
2022/06/02 03:08:05;;;;;;;3.38;2.90;;;13.30;99.90;;;;;;5218707;28;20033;-80
2022/06/02 03:10:42;;;;;;;3.15;2.85;;;13.40;99.90;;;;;;5199185;28;20069;-78
2022/06/02 03:13:51;;;;;;;4.35;3.05;;;13.40;99.90;;;;;;5202522;28;20021;-81
2022/06/02 03:16:30;;;;;;;3.60;2.97;;;13.50;99.90;;;;;;5206914;28;20179;-78
2022/06/02 03:19:33;;;;;;;3.17;2.78;;;13.50;99.90;;;;;;5203058;28;20671;-80
2022/06/02 03:22:23;;;;;;;3.42;3.13;;;13.50;99.90;;;;;;5204603;28;20021;-77
2022/06/02 03:25:06;;;;;;;3.63;3.30;;;13.60;99.90;;;;;;5204915;28;20064;-80
2022/06/02 03:28:10;;;;;;;3.35;2.85;;;13.70;99.90;;;;;;5180674;28;20064;-79
2022/06/02 03:31:17;;;;;;;3.70;3.25;;;13.70;99.90;;;;;;5218513;28;20032;-80
2022/06/02 03:34:14;;;;;;;2.83;2.63;;;13.80;99.90;;;;;;5250806;28;20475;-81
2022/06/02 03:37:19;;;;;;;3.22;2.88;;;13.80;99.90;;;;;;5250398;28;20035;-81
2022/06/02 03:40:15;;;;;;;3.25;2.97;;;14.10;99.90;;;;;;5235281;28;20017;-81
2022/06/02 03:43:09;;;;;;;3.38;2.63;;;14.30;99.90;;;;;;5231286;28;20463;-81
2022/06/02 03:45:50;;;;;;;4.32;3.15;;;14.50;99.90;;;;;;5230907;28;20382;-81
2022/06/02 03:48:54;;;;;;;3.55;3.00;;;14.70;99.90;;;;;;5244176;28;20033;-80
2022/06/02 03:51:31;;;;;;;4.38;3.13;;;14.70;99.90;;;;;;5260104;28;20038;-80
2022/06/02 03:54:43;;;;;;;6.65;3.55;;;14.80;99.90;;;;;;5248282;28;20028;-80
2022/06/02 03:57:17;;;;;;;4.97;3.88;;;14.90;99.90;;;;;;5245245;28;20024;-81
2022/06/02 04:00:07;;;;;;;3.88;3.40;;;15.10;99.90;;;;;;5230919;28;20021;-78
2022/06/02 04:02:45;;;;;;;3.38;3.08;;;15.20;99.90;;;;;;5231180;28;20509;-80
2022/06/02 04:05:40;;;;;;;3.00;2.75;;;15.30;99.90;;;;;;5235945;28;20052;-80
2022/06/02 04:08:49;;;;;;;5.20;3.22;;;15.40;99.90;;;;;;5252407;28;20025;-80
2022/06/02 04:14:42;;;;;;;2.30;2.10;;;15.60;99.90;;;;;;5251425;28;20017;-79
2022/06/02 04:17:36;;;;;;;1.88;1.63;;;15.60;99.90;;;;;;5252657;28;20639;-79
2022/06/02 04:23:11;;;;;;;1.40;1.30;;;15.90;99.90;;;;;;5234914;28;20039;-79
2022/06/02 04:26:11;;;;;;;1.80;1.38;;;16.20;99.90;;;;;;5220108;28;20210;-79
2022/06/02 04:29:00;;;;;;;1.90;1.70;;;16.30;99.90;;;;;;5248676;28;20031;-81
2022/06/02 04:31:53;;;;;;;1.77;1.45;;;16.60;99.90;;;;;;5252231;28;20493;-80
2022/06/02 04:34:50;;;;;;;1.42;1.33;;;16.60;99.90;;;;;;5272918;28;20030;-79
2022/06/02 04:38:09;;;;;;;1.70;1.60;;;16.90;99.90;;;;;;5211382;28;20044;-80
2022/06/02 04:40:51;;;;;;;1.45;1.35;;;17.10;99.90;;;;;;5215642;28;20017;-80
2022/06/02 04:43:48;;;;;;;0.95;0.95;;;17.30;99.90;;;;;;5246756;28;20485;-78
2022/06/02 04:46:41;;;;;;;1.00;1.00;;;17.10;99.90;;;;;;5213671;28;20395;-79
2022/06/02 04:49:21;;;;;;;0.90;0.90;;;17.00;99.90;;;;;;5227219;28;20054;-78
2022/06/02 04:52:05;;;;;;;1.63;1.30;;;17.10;99.90;;;;;;5233862;28;20028;-79
2022/06/02 04:55:00;;;;;;;1.27;1.17;;;17.10;99.90;;;;;;5245903;28;20020;-79
2022/06/02 04:58:09;;;;;;;1.23;1.23;;;17.10;99.90;;;;;;5229722;28;20502;-79
2022/06/02 05:01:01;;;;;;;1.30;1.20;;;17.10;99.90;;;;;;5207403;28;20025;-78
2022/06/02 05:03:43;;;;;;;2.75;1.20;;;17.20;99.90;;;;;;5210275;28;20020;-81
2022/06/02 05:06:43;;;;;;;1.50;1.40;;;17.30;99.90;;;;;;5196856;28;20053;-78
2022/06/02 05:09:48;;;;;;;1.20;1.10;;;17.50;99.90;;;;;;5227652;28;20031;-79
2022/06/02 05:12:25;;;;;;;;;;;17.60;99.90;;;;;;5241784;28;20051;-78
2022/06/02 05:15:34;;;;;;;1.35;1.25;;;17.60;99.90;;;;;;5248526;28;19934;-78
2022/06/02 05:18:10;;;;;;;1.17;1.10;;;17.60;99.90;;;;;;5248770;28;20042;-77
2022/06/02 05:20:44;;;;;;;1.40;1.30;;;17.70;99.90;;;;;;5207699;28;20035;-78
2022/06/02 05:23:41;;;;;;;1.70;1.60;;;17.70;99.90;;;;;;5228178;28;20028;-78
2022/06/02 05:26:31;;;;;;;1.88;1.23;;;17.80;99.90;;;;;;5226803;28;20155;-78
2022/06/02 05:29:37;;;;;;;1.20;1.10;;;18.20;99.90;;;;;;5209691;28;20059;-78
2022/06/02 05:32:34;;;;;;;1.75;1.30;;;18.40;99.90;;;;;;5226636;28;20025;-78
2022/06/02 05:35:27;;;;;;;2.10;1.00;;;18.60;99.90;;;;;;5164794;28;20041;-78
2022/06/02 05:38:11;;;;;;;1.48;1.38;;;18.40;99.90;;;;;;5151997;28;20365;-77
2022/06/02 05:41:16;;;;;;;0.85;0.85;;;18.30;99.90;;;;;;5133572;28;20037;-79
2022/06/02 05:43:59;;;;;;;1.23;1.17;;;18.40;99.90;;;;;;5149117;28;20049;-79
2022/06/02 05:46:41;;;;;;;1.40;1.30;;;18.50;99.90;;;;;;5127753;28;20054;-77
2022/06/02 05:49:42;;;;;;;1.40;1.30;;;18.40;99.90;;;;;;5136446;28;20030;-78
2022/06/02 05:52:30;;;;;;;1.17;1.17;;;18.60;99.90;;;;;;5136318;28;20050;-78
2022/06/02 05:55:19;;;;;;;1.23;1.13;;;18.60;99.90;;;;;;5153997;28;20049;-78
2022/06/02 05:58:05;;;;;;;1.30;1.20;;;18.80;99.90;;;;;;5144170;28;20038;-79
2022/06/02 06:00:58;;;;;;;1.27;1.17;;;18.90;99.90;;;;;;5143979;28;20029;-77
2022/06/02 06:03:59;;;;;;;1.17;1.08;;;19.10;99.90;;;;;;5145883;28;20037;-78
2022/06/02 06:06:57;;;;;;;2.60;1.30;;;19.40;99.90;;;;;;5122030;28;20047;-80
2022/06/02 06:09:49;;;;;;;1.13;1.13;;;19.30;99.90;;;;;;5145439;28;20023;-80
2022/06/02 06:12:26;;;;;;;1.40;1.30;;;18.90;99.90;;;;;;5201561;28;20144;-82
2022/06/02 06:15:10;;;;;;;1.40;1.10;;;18.70;99.90;;;;;;5248090;28;20011;-79
2022/06/02 06:17:49;;;;;;;2.53;1.20;;;18.70;99.90;;;;;;5260820;28;20026;-79
2022/06/02 06:20:49;;;;;;;1.42;1.33;;;18.60;99.90;;;;;;5237082;28;20025;-79
2022/06/02 06:23:45;;;;;;;1.40;1.30;;;18.40;99.90;;;;;;5261278;28;20022;-79
2022/06/02 06:26:28;;;;;;;1.40;1.30;;;18.50;99.90;;;;;;5258832;28;20119;-78
2022/06/02 06:29:12;;;;;;;1.30;1.20;;;18.70;99.90;;;;;;5224595;28;20031;-80
2022/06/02 06:31:59;;;;;;;1.67;1.20;;;18.70;99.90;;;;;;5242697;28;20024;-78
2022/06/02 06:34:49;;;;;;;2.30;1.30;;;18.70;99.90;;;;;;5271889;28;20742;-79
2022/06/02 06:37:42;;;;;;;2.05;1.85;;;18.70;99.90;;;;;;5236296;28;20036;-80
2022/06/02 06:40:33;;;;;;;1.27;1.17;;;19.10;99.90;;;;;;5253822;28;20419;-79
2022/06/02 06:43:35;;;;;;;1.05;1.02;;;19.50;99.90;;;;;;5200164;28;20041;-79
2022/06/02 06:46:45;;;;;;;1.20;1.10;;;19.90;99.90;;;;;;5229526;28;20390;-79
2022/06/02 06:49:35;;;;;;;1.40;1.30;;;19.90;99.90;;;;;;5228717;28;20021;-81
2022/06/02 06:52:28;;;;;;;2.00;1.80;;;19.70;99.90;;;;;;5248454;28;20245;-80
2022/06/02 06:55:08;;;;;;;2.55;1.45;;;19.80;99.90;;;;;;5249396;28;20318;-80
2022/06/02 06:57:45;;;;;;;1.33;1.17;;;20.20;99.90;;;;;;5249518;28;20020;-79
2022/06/02 07:00:47;;;;;;;1.38;1.13;;;20.60;99.90;;;;;;5228353;28;20025;-79
2022/06/02 07:03:27;;;;;;;1.17;1.15;;;20.70;99.90;;;;;;5231257;28;20035;-80
2022/06/02 07:06:08;;;;;;;1.70;1.60;;;20.20;99.90;;;;;;5242171;28;20483;-82
2022/06/02 07:09:09;;;;;;;1.35;1.25;;;19.70;99.90;;;;;;5241770;28;20024;-79
2022/06/02 07:15:37;;;;;;;1.50;1.40;;;19.70;99.90;;;;;;5237179;28;20051;-81
2022/06/02 07:18:13;;;;;;;2.03;1.52;;;19.50;99.90;;;;;;5219403;28;20210;-79
2022/06/02 07:21:03;;;;;;;2.70;1.80;;;19.70;99.90;;;;;;5235748;28;20034;-78
2022/06/02 07:23:54;;;;;;;1.40;1.30;;;19.60;99.90;;;;;;5236337;28;20031;-79
2022/06/02 07:26:29;;;;;;;1.25;1.20;;;19.10;99.90;;;;;;5233069;28;20029;-79
2022/06/02 07:29:15;;;;;;;1.60;1.50;;;19.20;99.90;;;;;;5234779;28;20023;-81
2022/06/02 07:32:16;;;;;;;1.67;1.23;;;19.20;99.90;;;;;;5235405;28;20039;-79
2022/06/02 07:34:56;;;;;;;1.30;1.20;;;19.30;99.90;;;;;;5253561;28;20022;-79
2022/06/02 07:37:43;;;;;;;1.90;1.77;;;19.20;99.90;;;;;;5235920;28;20028;-79
2022/06/02 07:40:33;;;;;;;1.25;1.15;;;19.40;99.90;;;;;;5272500;28;20125;-79
2022/06/02 07:43:23;;;;;;;1.63;1.27;;;19.70;99.90;;;;;;5236759;28;20594;-79
2022/06/02 07:46:16;;;;;;;1.65;1.55;;;20.00;99.90;;;;;;5243520;28;20035;-79
2022/06/02 07:49:10;;;;;;;1.50;1.40;;;19.90;99.90;;;;;;5252643;28;20020;-80
2022/06/02 07:51:48;;;;;;;1.35;1.25;;;19.50;99.90;;;;;;5256291;28;20008;-79
2022/06/02 07:54:48;;;;;;;3.08;1.65;;;19.90;99.90;;;;;;5247115;28;20386;-80
2022/06/02 07:57:25;;;;;;;1.73;1.30;;;20.10;99.90;;;;;;5231594;28;20571;-79
2022/06/02 08:00:05;;;;;;;1.50;1.40;;;20.20;99.90;;;;;;5215529;28;20033;-80
2022/06/02 08:03:09;;;;;;;2.00;1.48;;;20.20;99.90;;;;;;5233717;28;20020;-79
2022/06/02 08:06:02;;;;;;;1.02;1.00;;;20.50;99.90;;;;;;5217813;28;20040;-79
2022/06/02 08:08:39;;;;;;;2.35;1.70;;;20.90;99.90;;;;;;5249164;28;20055;-80
2022/06/02 08:11:39;;;;;;;1.15;1.02;;;20.70;99.90;;;;;;5252450;28;20016;-80
2022/06/02 08:14:22;;;;;;;1.23;1.13;;;20.80;99.90;;;;;;5253435;28;20047;-80
2022/06/02 08:17:20;;;;;;;1.60;1.15;;;20.90;99.90;;;;;;5225678;28;20322;-79
2022/06/02 08:20:13;;;;;;;2.60;1.52;;;20.70;99.90;;;;;;5235121;28;20024;-81
2022/06/02 08:22:57;;;;;;;1.33;1.23;;;20.80;99.90;;;;;;5253073;28;20020;-80
2022/06/02 08:25:55;;;;;;;2.15;1.38;;;20.90;99.90;;;;;;5247261;28;20035;-80
2022/06/02 08:28:35;;;;;;;1.13;1.08;;;21.40;99.90;;;;;;5252988;28;20027;-80
2022/06/02 08:31:21;;;;;;;1.20;1.13;;;22.00;99.90;;;;;;5238561;28;20031;-80
2022/06/02 08:34:00;;;;;;;1.10;1.00;;;22.20;99.90;;;;;;5271646;28;20024;-83
2022/06/02 08:37:07;;;;;;;1.10;1.00;;;22.60;99.90;;;;;;5273078;28;20062;-79
2022/06/02 08:40:20;;;;;;;1.40;1.30;;;21.90;99.90;;;;;;5222727;28;20025;-80
2022/06/02 08:43:27;;;;;;;1.35;1.25;;;22.00;99.90;;;;;;5208387;28;20029;-79
2022/06/02 08:46:28;;;;;;;1.30;1.20;;;22.00;99.90;;;;;;5252243;28;20039;-78
2022/06/02 08:49:23;;;;;;;1.30;1.20;;;22.10;99.90;;;;;;5250145;28;20445;-81
2022/06/02 08:52:13;;;;;;;;;;;22.30;99.90;;;;;;5234891;28;20551;-81
2022/06/02 08:54:53;;;;;;;0.98;0.90;;;22.40;99.90;;;;;;5253072;28;19927;-82
2022/06/02 08:57:39;;;;;;;1.00;0.90;;;22.50;99.90;;;;;;5234767;28;20035;-83
2022/06/02 09:00:23;;;;;;;1.35;1.25;;;22.30;99.90;;;;;;5244686;28;20021;-82
2022/06/02 09:03:10;;;;;;;1.17;1.08;;;23.00;99.90;;;;;;5232089;28;20027;-83
2022/06/02 09:06:25;;;;;;;3.63;1.30;;;23.70;99.90;;;;;;5221656;28;20048;-84
2022/06/02 09:09:13;;;;;;;1.80;1.43;;;23.20;99.90;;;;;;5242140;28;20025;-82
2022/06/02 09:11:59;;;;;;;1.40;1.30;;;23.10;99.90;;;;;;5262224;28;20247;-82
2022/06/02 09:14:52;;;;;;;1.58;1.48;;;22.80;99.90;;;;;;5273383;28;20020;-82
2022/06/02 09:17:46;;;;;;;0.95;0.95;;;23.10;99.90;;;;;;5232372;28;20042;-81
2022/06/02 09:20:37;;;;;;;1.30;1.20;;;24.00;99.90;;;;;;5227374;28;20042;-82
2022/06/02 09:23:17;;;;;;;1.08;1.05;;;24.20;99.90;;;;;;5231202;28;20024;-82
2022/06/02 09:26:28;;;;;;;1.05;1.00;;;23.90;99.90;;;;;;5235797;28;20042;-82
2022/06/02 09:29:21;;;;;;;1.10;0.98;;;23.00;99.90;;;;;;5231152;28;20021;-82
2022/06/02 09:32:12;;;;;;;1.50;1.40;;;23.20;99.90;;;;;;5220359;28;20367;-81
2022/06/02 09:35:07;;;;;;;3.28;1.17;;;23.30;99.90;;;;;;5269055;28;20037;-80
2022/06/02 09:37:52;;;;;;;1.27;1.17;;;23.80;99.90;;;;;;5241242;28;20024;-84
2022/06/02 09:40:42;;;;;;;;;;;24.30;99.90;;;;;;5251585;28;20022;-82
2022/06/02 09:43:40;;;;;;;1.85;1.67;;;24.20;99.90;;;;;;5252048;28;19907;-81
2022/06/02 09:46:36;;;;;;;1.45;1.25;;;23.50;99.90;;;;;;5217580;28;20039;-80
2022/06/02 09:49:40;;;;;;;1.40;1.30;;;23.00;99.90;;;;;;5252463;28;20030;-83
2022/06/02 09:52:19;;;;;;;1.55;1.20;;;22.80;99.90;;;;;;5231335;28;20207;-81
2022/06/02 09:54:58;;;;;;;1.45;1.35;;;23.00;99.90;;;;;;5230543;28;20024;-80
2022/06/02 10:00:30;;;;;;;1.33;1.15;;;24.20;99.90;;;;;;5272523;28;20019;-80
2022/06/02 10:03:12;;;;;;;2.47;1.20;;;25.30;99.90;;;;;;5273019;28;20030;-82
2022/06/02 10:06:04;;;;;;;1.30;1.20;;;25.00;99.90;;;;;;5249699;28;20048;-82
2022/06/02 10:08:44;;;;;;;0.90;0.90;;;25.20;99.90;;;;;;5244202;28;20025;-82
2022/06/02 10:11:51;;;;;;;1.52;1.33;;;24.90;99.90;;;;;;5251254;28;20230;-82
2022/06/02 10:14:59;;;;;;;1.48;1.33;;;24.70;99.90;;;;;;5251798;28;20027;-81
2022/06/02 10:17:59;;;;;;;1.35;1.25;;;25.50;99.90;;;;;;5233982;28;20032;-81
2022/06/02 10:20:47;;;;;;;1.33;1.23;;;24.90;99.90;;;;;;5229625;28;20027;-81
2022/06/02 10:23:34;;;;;;;1.38;1.27;;;24.70;99.90;;;;;;5272352;28;20034;-82
2022/06/02 10:26:31;;;;;;;3.60;1.35;;;25.00;99.90;;;;;;5272028;28;20023;-83
2022/06/02 10:29:27;;;;;;;1.05;1.05;;;26.00;99.90;;;;;;5253138;28;20246;-81
2022/06/02 10:32:46;;;;;;;1.55;1.20;;;26.40;99.90;;;;;;5272196;28;20024;-83
2022/06/02 10:35:54;;;;;;;1.30;1.05;;;25.30;99.90;;;;;;5241114;28;20025;-82
2022/06/02 10:38:35;;;;;;;1.30;1.20;;;25.10;99.90;;;;;;5232706;28;20028;-79
2022/06/02 10:41:33;;;;;;;1.30;1.20;;;25.50;99.90;;;;;;5251982;28;20020;-82
2022/06/02 10:44:15;;;;;;;1.00;0.90;;;27.20;99.90;;;;;;5234163;28;20020;-80
2022/06/02 10:47:17;;;;;;;1.38;1.13;;;27.60;99.90;;;;;;5231175;28;20032;-81
2022/06/02 10:50:39;;;;;;;1.63;0.93;;;28.60;99.90;;;;;;5230758;28;20020;-79
2022/06/02 10:53:25;;;;;;;1.20;1.10;;;29.50;99.90;;;;;;5178292;28;20038;-82
2022/06/02 10:56:23;;;;;;;0.90;0.85;;;28.50;99.90;;;;;;5170157;28;20037;-81
2022/06/02 10:59:13;;;;;;;1.00;1.00;;;30.50;99.90;;;;;;5186964;28;20029;-81
2022/06/02 11:02:15;;;;;;;1.23;1.10;;;31.60;99.90;;;;;;5192963;28;20029;-82
2022/06/02 11:05:21;;;;;;;0.90;0.90;;;29.10;99.90;;;;;;5232814;28;20449;-82
2022/06/02 11:08:04;;;;;;;2.95;1.10;;;28.40;99.90;;;;;;5233084;28;20024;-82
2022/06/02 11:11:08;;;;;;;1.10;1.00;;;28.20;99.90;;;;;;5212671;28;20021;-83
2022/06/02 11:14:20;;;;;;;0.93;0.90;;;28.80;99.90;;;;;;5212508;28;20032;-81
2022/06/02 11:17:13;;;;;;;0.77;0.77;;;29.00;99.90;;;;;;5197267;28;20361;-78
2022/06/02 11:20:25;;;;;;;0.90;0.90;;;27.60;99.90;;;;;;5194606;28;20058;-79
2022/06/02 11:23:11;;;;;;;1.20;1.10;;;26.70;99.90;;;;;;5221682;28;20070;-80
2022/06/02 11:26:22;;;;;;;1.08;0.95;;;27.00;99.90;;;;;;5230917;28;20061;-80
2022/06/02 11:29:05;;;;;;;2.97;1.10;;;28.00;99.90;;;;;;5269783;28;20030;-81
2022/06/02 11:32:02;;;;;;;0.80;0.80;;;29.60;99.90;;;;;;5240759;28;20027;-80
2022/06/02 11:34:49;;;;;;;1.15;1.00;;;30.50;99.90;;;;;;5237555;28;20027;-82
2022/06/02 11:37:49;;;;;;;1.13;1.00;;;32.20;99.90;;;;;;5244340;28;20035;-83
2022/06/02 11:40:50;;;;;;;0.93;0.88;;;30.00;99.90;;;;;;5268937;28;20031;-80
2022/06/02 11:43:52;;;;;;;1.10;1.10;;;28.80;99.90;;;;;;5250727;28;20020;-84
2022/06/02 11:47:02;;;;;;;1.20;1.00;;;31.50;99.90;;;;;;5225013;28;20037;-81
2022/06/02 11:50:04;;;;;;;0.80;0.80;;;30.40;99.90;;;;;;5227754;28;20131;-81
2022/06/02 11:53:16;;;;;;;1.42;1.00;;;31.70;99.90;;;;;;5219698;28;20025;-80
2022/06/02 11:56:12;;;;;;;1.27;1.00;;;34.30;99.90;;;;;;5149548;28;20037;-81
2022/06/02 11:59:21;;;;;;;1.40;1.08;;;34.60;99.90;;;;;;5134127;28;20023;-80
2022/06/02 12:02:23;;;;;;;1.25;1.10;;;30.90;99.90;;;;;;5129165;28;20043;-80
2022/06/02 12:05:06;;;;;;;2.22;0.95;;;30.30;99.90;;;;;;5122034;28;20051;-80
2022/06/02 12:07:56;;;;;;;0.82;0.82;;;30.60;99.90;;;;;;5152912;28;20330;-79
2022/06/02 12:10:45;;;;;;;0.88;0.82;;;28.50;99.90;;;;;;5172071;28;20030;-79
2022/06/02 12:13:31;;;;;;;1.13;1.02;;;28.90;99.90;;;;;;5171914;28;20342;-81
2022/06/02 12:16:23;;;;;;;1.38;1.08;;;29.20;99.90;;;;;;5155055;28;20048;-81
2022/06/02 12:19:00;;;;;;;1.10;1.00;;;30.00;99.90;;;;;;5137829;28;20035;-79
2022/06/02 12:21:42;;;;;;;1.15;1.00;;;31.50;99.90;;;;;;5132531;28;20030;-81
2022/06/02 12:24:31;;;;;;;0.95;0.88;;;32.60;99.90;;;;;;5137170;28;20048;-80
2022/06/02 12:27:15;;;;;;;37.28;2.35;;;34.30;99.90;;;;;;5170413;28;20042;-81
2022/06/02 12:30:23;;;;;;;1.55;1.00;;;34.50;99.90;;;;;;5209919;28;20406;-81
2022/06/02 12:33:03;;;;;;;1.10;0.98;;;34.00;99.90;;;;;;5237081;28;20023;-80
2022/06/02 12:35:50;;;;;;;1.83;1.10;;;31.70;99.90;;;;;;5250518;28;20028;-79
2022/06/02 12:38:59;;;;;;;1.23;0.90;;;29.30;99.90;;;;;;5262560;28;20462;-82
2022/06/02 12:41:52;;;;;;;0.80;0.80;;;31.00;99.90;;;;;;5217892;28;20473;-83
2022/06/02 12:44:47;;;;;;;1.15;1.00;;;33.60;99.90;;;;;;5235571;28;20026;-79
2022/06/02 12:47:43;;;;;;;0.70;0.70;;;31.00;99.90;;;;;;5228347;28;20044;-80
2022/06/02 12:50:43;;;;;;;1.20;1.10;;;30.70;99.90;;;;;;5224029;28;20021;-80
2022/06/02 12:53:20;;;;;;;1.90;0.80;;;30.30;99.90;;;;;;5227492;28;20237;-79
2022/06/02 12:56:31;;;;;;;1.50;1.10;;;28.40;99.90;;;;;;5234100;28;20025;-79
2022/06/02 12:59:15;;;;;;;2.00;0.80;;;27.00;99.90;;;;;;5216964;28;20021;-79
2022/06/02 13:01:56;;;;;;;1.15;1.05;;;26.10;99.90;;;;;;5254280;28;20017;-79
2022/06/02 13:04:42;;;;;;;1.48;1.38;;;26.30;99.90;;;;;;5223985;28;20029;-78
2022/06/02 13:07:19;;;;;;;2.17;1.30;;;25.90;99.90;;;;;;5233207;28;20036;-79
2022/06/02 13:10:11;;;;;;;1.00;0.82;;;25.80;99.90;;;;;;5270229;28;20028;-78
2022/06/02 13:13:19;;;;;;;1.20;1.10;;;26.40;99.90;;;;;;5275956;28;20030;-81
2022/06/02 13:16:16;;;;;;;0.80;0.80;;;26.80;99.90;;;;;;5233095;28;20021;-78
2022/06/02 13:19:08;;;;;;;0.90;0.90;;;27.10;99.90;;;;;;5205999;28;20040;-81
2022/06/02 13:22:17;;;;;;;4.53;1.00;;;27.90;99.90;;;;;;5249152;28;20024;-79
2022/06/02 13:25:26;;;;;;;1.15;0.93;;;28.40;99.90;;;;;;5214437;28;20035;-81
2022/06/02 13:28:34;;;;;;;1.23;1.05;;;27.70;99.90;;;;;;5233357;28;20025;-80
2022/06/02 13:31:30;;;;;;;0.80;0.80;;;26.60;99.90;;;;;;5215226;28;20032;-79
2022/06/02 13:34:40;;;;;;;1.27;1.17;;;26.20;99.90;;;;;;5235279;28;20023;-81
2022/06/02 13:37:30;;;;;;;2.80;0.90;;;26.20;99.90;;;;;;5253027;28;20017;-82
2022/06/02 13:40:16;;;;;;;0.90;0.90;;;26.30;99.90;;;;;;5267481;28;20023;-79
2022/06/02 13:43:13;;;;;;;1.33;1.10;;;26.70;99.90;;;;;;5274432;28;20526;-78
2022/06/02 13:46:34;;;;;;;0.95;0.95;;;27.10;99.90;;;;;;5252303;28;20019;-81
2022/06/02 13:49:28;;;;;;;1.95;1.13;;;26.40;99.90;;;;;;5195859;28;20389;-81
2022/06/02 13:52:04;;;;;;;1.00;0.90;;;25.80;99.90;;;;;;5229867;28;20037;-80
2022/06/02 13:57:59;;;;;;;0.80;0.80;;;25.60;99.90;;;;;;5206838;28;20025;-81
2022/06/02 14:00:51;;;;;;;1.20;1.10;;;26.00;99.90;;;;;;5235260;28;20039;-81
2022/06/02 14:03:38;;;;;;;0.80;0.80;;;25.80;99.90;;;;;;5234604;28;20025;-80
2022/06/02 14:06:18;;;;;;;1.27;1.17;;;25.60;99.90;;;;;;5241062;28;20277;-80
2022/06/02 14:09:10;;;;;;;1.45;1.20;;;25.30;99.90;;;;;;5250791;28;20024;-81
2022/06/02 14:11:52;;;;;;;1.25;1.15;;;25.20;99.90;;;;;;5230525;28;20021;-81
2022/06/02 14:14:52;;;;;;;0.93;0.90;;;25.60;99.90;;;;;;5220426;28;20035;-81
2022/06/02 14:17:35;;;;;;;1.15;0.95;;;25.70;99.90;;;;;;5251072;28;20020;-81
2022/06/02 14:20:40;;;;;;;1.30;1.20;;;26.00;99.90;;;;;;5250927;28;20044;-83
2022/06/02 14:23:29;;;;;;;1.10;0.95;;;26.50;99.90;;;;;;5210403;28;20040;-85
2022/06/02 14:26:46;;;;;;;1.45;1.10;;;27.10;99.90;;;;;;5245037;28;20035;-82
2022/06/02 14:29:52;;;;;;;0.95;0.90;;;27.30;99.90;;;;;;5211347;28;20523;-82
2022/06/02 14:32:43;;;;;;;1.20;1.10;;;26.20;99.90;;;;;;5223986;28;20029;-81
2022/06/02 14:35:56;;;;;;;1.95;1.02;;;26.10;99.90;;;;;;5245367;28;20074;-83
2022/06/02 14:38:38;;;;;;;1.10;0.85;;;26.40;99.90;;;;;;5245664;28;20028;-83
2022/06/02 14:41:28;;;;;;;1.02;0.90;;;27.30;99.90;;;;;;5253490;28;20032;-83
2022/06/02 14:44:23;;;;;;;1.42;1.08;;;27.60;99.90;;;;;;5237508;28;20024;-83
2022/06/02 14:47:29;;;;;;;0.98;0.93;;;27.20;99.90;;;;;;5230458;28;20040;-84
2022/06/02 14:50:12;;;;;;;1.50;0.90;;;27.80;99.90;;;;;;5216531;28;20025;-83
2022/06/02 14:53:02;;;;;;;0.80;0.80;;;28.50;99.90;;;;;;5235460;28;20016;-84
2022/06/02 14:55:55;;;;;;;0.80;0.80;;;29.30;99.90;;;;;;5248343;28;20030;-83
2022/06/02 14:58:32;;;;;;;1.00;0.90;;;29.90;99.90;;;;;;5246884;28;20037;-83
2022/06/02 15:01:13;;;;;;;1.00;0.90;;;29.20;99.90;;;;;;5223285;28;20028;-84
2022/06/02 15:03:59;;;;;;;1.23;1.13;;;29.10;99.90;;;;;;5249015;28;20021;-83
2022/06/02 15:06:53;;;;;;;1.10;1.00;;;29.30;99.90;;;;;;5186081;28;20058;-83
2022/06/02 15:09:39;;;;;;;1.30;1.15;;;30.40;99.90;;;;;;5248209;28;20024;-83
2022/06/02 15:12:14;;;;;;;1.05;1.00;;;30.50;99.90;;;;;;5225783;28;20045;-84
2022/06/02 15:14:57;;;;;;;1.23;1.13;;;30.60;99.90;;;;;;5247556;28;20378;-86